createdAt,value
2018-07-12T00:01:32.193Z,2.77
2018-07-12T00:03:59.450Z,2.70
2018-07-12T00:06:26.740Z,2.80
2018-07-12T00:08:54.054Z,3.13
2018-07-12T00:11:21.356Z,2.73
2018-07-12T00:13:48.647Z,2.80
2018-07-12T00:16:15.956Z,2.70
2018-07-12T00:18:43.235Z,2.70
2018-07-12T00:21:10.534Z,3.07
2018-07-12T00:23:37.820Z,3.23
2018-07-12T00:26:05.111Z,2.90
2018-07-12T00:28:32.804Z,3.37
2018-07-12T00:31:00.060Z,2.73
2018-07-12T00:33:27.346Z,2.90
2018-07-12T00:35:54.630Z,3.10
2018-07-12T00:38:21.922Z,2.90
2018-07-12T00:40:49.242Z,3.60
2018-07-12T00:43:16.523Z,3.00
2018-07-12T00:45:43.994Z,3.27
2018-07-12T00:48:11.376Z,3.10
2018-07-12T00:50:38.666Z,3.30
2018-07-12T00:53:05.976Z,2.77
2018-07-12T00:55:33.259Z,3.37
2018-07-12T00:58:00.554Z,2.83
2018-07-12T01:00:27.936Z,3.27
2018-07-12T01:02:55.206Z,3.07
2018-07-12T01:05:22.540Z,3.17
2018-07-12T01:07:49.807Z,3.40
2018-07-12T01:10:17.107Z,3.40
2018-07-12T01:12:44.371Z,3.50
2018-07-12T01:15:11.669Z,3.17
2018-07-12T01:17:39.260Z,3.00
2018-07-12T01:20:06.574Z,3.30
2018-07-12T01:22:33.872Z,3.30
2018-07-12T01:25:01.256Z,2.87
2018-07-12T01:27:28.547Z,2.93
2018-07-12T01:29:55.834Z,3.20
2018-07-12T01:32:24.119Z,3.33
2018-07-12T01:34:51.383Z,3.37
2018-07-12T01:37:18.672Z,3.10
2018-07-12T01:39:45.954Z,2.90
2018-07-12T01:42:13.243Z,3.13
2018-07-12T01:44:41.833Z,3.23
2018-07-12T01:47:09.102Z,3.20
2018-07-12T01:49:36.566Z,2.93
2018-07-12T01:52:03.874Z,3.20
2018-07-12T01:54:31.187Z,3.03
2018-07-12T01:56:58.611Z,2.97
2018-07-12T01:59:25.889Z,2.80
2018-07-12T02:01:53.170Z,2.90
2018-07-12T02:04:20.446Z,3.40
2018-07-12T02:06:47.715Z,2.90
2018-07-12T02:09:14.988Z,2.93
2018-07-12T02:11:42.271Z,3.30
2018-07-12T02:14:09.579Z,3.10
2018-07-12T02:16:36.922Z,3.27
2018-07-12T02:19:04.191Z,3.67
2018-07-12T02:21:31.496Z,3.17
2018-07-12T02:23:58.782Z,3.10
2018-07-12T02:26:26.087Z,3.20
2018-07-12T02:28:53.359Z,3.50
2018-07-12T02:31:20.655Z,2.80
2018-07-12T02:33:49.376Z,3.30
2018-07-12T02:36:16.834Z,3.17
2018-07-12T02:38:44.179Z,3.17
2018-07-12T02:41:11.479Z,3.40
2018-07-12T02:43:38.795Z,3.40
2018-07-12T02:46:06.083Z,3.20
2018-07-12T02:48:33.364Z,3.23
2018-07-12T02:51:00.638Z,2.97
2018-07-12T02:53:27.935Z,3.03
2018-07-12T02:55:55.227Z,3.33
2018-07-12T02:58:22.489Z,2.90
2018-07-12T03:00:49.771Z,3.63
2018-07-12T03:03:17.048Z,3.23
2018-07-12T03:05:44.334Z,3.30
2018-07-12T03:08:11.604Z,3.10
2018-07-12T03:10:40.747Z,3.53
2018-07-12T03:13:08.019Z,2.90
2018-07-12T03:15:35.292Z,3.20
2018-07-12T03:18:02.595Z,3.20
2018-07-12T03:20:31.194Z,3.23
2018-07-12T03:22:58.485Z,3.40
2018-07-12T03:25:25.761Z,3.00
2018-07-12T03:27:53.035Z,3.20
2018-07-12T03:30:20.307Z,3.50
2018-07-12T03:32:47.664Z,3.23
2018-07-12T03:35:14.946Z,3.20
2018-07-12T03:37:42.246Z,3.33
2018-07-12T03:40:09.562Z,3.23
2018-07-12T03:42:36.835Z,2.80
2018-07-12T03:45:04.122Z,3.40
2018-07-12T03:47:32.846Z,3.40
2018-07-12T03:50:00.146Z,3.43
2018-07-12T03:52:27.428Z,3.47
2018-07-12T03:54:54.745Z,3.77
2018-07-12T03:57:22.302Z,3.70
2018-07-12T03:59:49.576Z,3.77
2018-07-12T04:02:16.850Z,3.63
2018-07-12T04:04:44.235Z,3.40
2018-07-12T04:07:11.518Z,3.50
2018-07-12T04:09:38.799Z,3.87
2018-07-12T04:12:06.157Z,3.83
2018-07-12T04:14:33.714Z,3.90
2018-07-12T04:17:00.979Z,3.70
2018-07-12T04:19:28.259Z,4.37
2018-07-12T04:21:55.604Z,3.67
2018-07-12T04:24:22.872Z,3.67
2018-07-12T04:26:50.164Z,4.27
2018-07-12T04:29:17.430Z,3.20
2018-07-12T04:31:44.759Z,3.50
2018-07-12T04:34:12.156Z,3.70
2018-07-12T04:36:42.931Z,3.53
2018-07-12T04:39:10.220Z,3.77
2018-07-12T04:41:37.586Z,3.50
2018-07-12T04:44:04.938Z,3.63
2018-07-12T04:46:32.223Z,4.03
2018-07-12T04:48:59.503Z,3.80
2018-07-12T04:51:26.811Z,3.60
2018-07-12T04:53:54.112Z,3.97
2018-07-12T04:56:21.536Z,3.37
2018-07-12T04:58:48.826Z,3.50
2018-07-12T05:01:16.083Z,3.50
2018-07-12T05:03:43.363Z,3.23
2018-07-12T05:06:11.275Z,3.53
2018-07-12T05:08:39.049Z,3.30
2018-07-12T05:11:06.342Z,3.60
2018-07-12T05:13:33.654Z,3.40
2018-07-12T05:16:00.921Z,3.70
2018-07-12T05:18:28.176Z,3.20
2018-07-12T05:20:55.459Z,3.60
2018-07-12T05:23:23.851Z,3.43
2018-07-12T05:25:51.131Z,3.23
2018-07-12T05:28:18.448Z,3.50
2018-07-12T05:30:45.776Z,3.20
2018-07-12T05:33:13.031Z,3.17
2018-07-12T05:35:41.462Z,3.13
2018-07-12T05:38:10.450Z,3.57
2018-07-12T05:40:39.039Z,3.30
2018-07-12T05:43:07.717Z,3.57
2018-07-12T05:45:36.147Z,3.57
2018-07-12T05:48:05.032Z,2.90
2018-07-12T05:50:33.489Z,3.37
2018-07-12T05:53:02.231Z,3.30
2018-07-12T05:55:30.702Z,3.27
2018-07-12T05:57:59.230Z,3.27
2018-07-12T06:00:27.763Z,3.03
2018-07-12T06:02:56.338Z,3.50
2018-07-12T06:05:24.851Z,3.80
2018-07-12T06:07:53.402Z,3.50
2018-07-12T06:10:22.027Z,3.60
2018-07-12T06:12:50.499Z,3.43
2018-07-12T06:15:19.011Z,4.13
2018-07-12T06:17:49.430Z,4.07
2018-07-12T06:20:17.995Z,3.90
2018-07-12T06:22:46.440Z,4.00
2018-07-12T06:25:14.885Z,4.17
2018-07-12T06:27:43.300Z,3.83
2018-07-12T06:30:11.859Z,4.33
2018-07-12T06:32:40.361Z,4.50
2018-07-12T06:35:08.815Z,3.73
2018-07-12T06:37:37.324Z,3.80
2018-07-12T06:40:05.907Z,4.47
2018-07-12T06:42:34.444Z,4.33
2018-07-12T06:45:02.866Z,4.93
2018-07-12T06:47:31.355Z,4.70
2018-07-12T06:49:59.832Z,4.20
2018-07-12T06:52:28.272Z,4.30
2018-07-12T06:54:56.754Z,5.03
2018-07-12T06:57:25.372Z,4.70
2018-07-12T06:59:55.563Z,4.90
2018-07-12T07:02:24.886Z,4.83
2018-07-12T07:04:53.347Z,5.10
2018-07-12T07:07:21.799Z,5.40
2018-07-12T07:09:50.246Z,4.60
2018-07-12T07:12:18.692Z,5.13
2018-07-12T07:14:47.139Z,5.70
2018-07-12T07:17:15.511Z,6.10
2018-07-12T07:19:43.992Z,6.20
2018-07-12T07:22:12.475Z,5.83
2018-07-12T07:24:40.910Z,6.77
2018-07-12T07:27:09.501Z,7.93
2018-07-12T07:29:38.006Z,7.23
2018-07-12T07:32:06.270Z,8.00
2018-07-12T07:34:34.780Z,7.53
2018-07-12T07:37:03.221Z,7.63
2018-07-12T07:39:32.251Z,7.23
2018-07-12T07:42:00.709Z,7.10
2018-07-12T07:44:29.111Z,6.80
2018-07-12T07:46:57.718Z,6.73
2018-07-12T07:49:26.163Z,7.00
2018-07-12T07:51:54.648Z,8.77
2018-07-12T07:54:23.062Z,8.27
2018-07-12T07:56:51.672Z,8.10
2018-07-12T07:59:20.240Z,9.00
2018-07-12T08:01:48.817Z,8.27
2018-07-12T08:04:17.230Z,7.37
2018-07-12T08:06:45.764Z,8.03
2018-07-12T08:09:14.631Z,6.97
2018-07-12T08:11:43.610Z,7.67
2018-07-12T08:14:12.107Z,7.33
2018-07-12T08:16:40.624Z,7.27
2018-07-12T08:19:09.107Z,7.00
2018-07-12T08:21:37.685Z,6.60
2018-07-12T08:24:06.269Z,6.67
2018-07-12T08:26:34.742Z,6.77
2018-07-12T08:29:03.331Z,6.43
2018-07-12T08:31:31.988Z,7.10
2018-07-12T08:34:00.455Z,6.37
2018-07-12T08:36:29.029Z,6.27
2018-07-12T08:38:57.567Z,7.10
2018-07-12T08:41:26.213Z,6.70
2018-07-12T08:43:54.664Z,6.30
2018-07-12T08:46:23.063Z,6.00
2018-07-12T08:48:51.408Z,6.70
2018-07-12T08:51:19.928Z,6.87
2018-07-12T08:53:48.479Z,7.07
2018-07-12T08:56:17.016Z,6.70
2018-07-12T08:58:45.569Z,6.20
2018-07-12T09:01:15.392Z,7.07
2018-07-12T09:03:43.857Z,6.30
2018-07-12T09:06:12.352Z,5.90
2018-07-12T09:08:40.892Z,5.70
2018-07-12T09:11:09.322Z,6.10
2018-07-12T09:13:37.839Z,5.37
2018-07-12T09:16:06.383Z,5.47
2018-07-12T09:18:35.648Z,5.10
2018-07-12T09:21:04.162Z,5.03
2018-07-12T09:23:32.606Z,4.67
2018-07-12T09:26:01.099Z,4.60
2018-07-12T09:28:29.779Z,4.60
2018-07-12T09:30:58.301Z,4.97
2018-07-12T09:33:26.747Z,4.87
2018-07-12T09:35:55.444Z,5.50
2018-07-12T09:38:45.747Z,4.73
2018-07-12T09:41:14.199Z,5.20
2018-07-12T09:43:43.838Z,4.97
2018-07-12T09:46:12.423Z,4.90
2018-07-12T09:48:41.746Z,4.33
2018-07-12T09:51:10.999Z,4.97
2018-07-12T09:53:40.288Z,5.57
2018-07-12T09:56:10.959Z,4.90
2018-07-12T09:58:39.927Z,5.50
2018-07-12T10:01:13.897Z,5.10
2018-07-12T10:03:46.032Z,5.17
2018-07-12T10:06:19.938Z,5.47
2018-07-12T10:08:53.750Z,5.13
2018-07-12T10:11:27.545Z,5.03
2018-07-12T10:14:01.106Z,4.53
2018-07-12T10:16:34.911Z,4.40
2018-07-12T10:19:03.385Z,4.77
2018-07-12T10:21:31.858Z,4.90
2018-07-12T10:24:00.341Z,4.90
2018-07-12T10:26:28.919Z,4.70
2018-07-12T10:28:57.408Z,5.30
2018-07-12T10:31:26.087Z,4.63
2018-07-12T10:33:54.690Z,4.37
2018-07-12T10:36:24.899Z,4.30
2018-07-12T10:38:53.430Z,4.63
2018-07-12T10:41:21.926Z,4.10
2018-07-12T10:43:50.422Z,3.50
2018-07-12T10:46:19.920Z,3.80
2018-07-12T10:48:48.341Z,4.20
2018-07-12T10:51:16.824Z,4.00
2018-07-12T10:53:45.388Z,3.70
2018-07-12T10:56:14.154Z,3.40
2018-07-12T10:58:42.609Z,3.03
2018-07-12T11:01:11.106Z,3.60
2018-07-12T11:03:39.608Z,2.10
2018-07-12T11:06:08.060Z,2.23
2018-07-12T11:08:36.567Z,2.37
2018-07-12T11:11:05.567Z,2.07
2018-07-12T11:13:53.548Z,2.73
2018-07-12T11:16:22.056Z,2.40
2018-07-12T11:18:50.495Z,2.60
2018-07-12T11:21:19.138Z,2.60
2018-07-12T11:23:47.842Z,2.13
2018-07-12T11:26:16.266Z,2.13
2018-07-12T11:28:44.771Z,2.30
2018-07-12T11:31:13.304Z,2.20
2018-07-12T11:33:44.087Z,2.10
2018-07-12T11:36:13.756Z,2.30
2018-07-12T11:38:43.238Z,2.30
2018-07-12T11:41:12.104Z,2.33
2018-07-12T11:43:41.592Z,2.00
2018-07-12T11:46:11.306Z,2.80
2018-07-12T11:48:40.824Z,2.63
2018-07-12T11:51:09.473Z,2.80
2018-07-12T11:53:37.987Z,2.70
2018-07-12T11:56:06.777Z,2.80
2018-07-12T11:58:35.506Z,2.47
2018-07-12T12:01:04.163Z,2.77
2018-07-12T12:03:33.188Z,2.60
2018-07-12T12:06:01.666Z,2.70
2018-07-12T12:08:30.293Z,2.90
2018-07-12T12:10:58.852Z,2.90
2018-07-12T12:13:27.427Z,2.73
2018-07-12T12:15:55.923Z,2.40
2018-07-12T12:18:24.407Z,2.27
2018-07-12T12:20:53.002Z,2.17
2018-07-12T12:23:21.615Z,2.60
2018-07-12T12:25:50.049Z,2.30
2018-07-12T12:28:18.540Z,2.47
2018-07-12T12:30:47.076Z,2.00
2018-07-12T12:33:15.598Z,2.30
2018-07-12T12:35:44.147Z,2.60
2018-07-12T12:38:12.630Z,2.80
2018-07-12T12:40:41.311Z,2.90
2018-07-12T12:43:11.043Z,3.33
2018-07-12T12:45:39.598Z,2.90
2018-07-12T12:48:08.052Z,3.60
2018-07-12T12:50:36.695Z,4.17
2018-07-12T12:53:05.143Z,3.43
2018-07-12T12:55:33.723Z,3.50
2018-07-12T12:58:02.200Z,3.07
2018-07-12T13:00:30.682Z,2.90
2018-07-12T13:02:59.244Z,2.93
2018-07-12T13:05:27.743Z,3.00
2018-07-12T13:07:56.482Z,3.30
2018-07-12T13:10:24.895Z,3.20
2018-07-12T13:12:53.372Z,3.23
2018-07-12T13:15:21.884Z,3.23
2018-07-12T13:17:50.596Z,3.20
2018-07-12T13:20:19.173Z,3.40
2018-07-12T13:22:47.711Z,3.07
2018-07-12T13:25:16.135Z,3.00
2018-07-12T13:27:44.627Z,2.90
2018-07-12T13:30:13.021Z,2.80
2018-07-12T13:32:41.604Z,2.97
2018-07-12T13:35:10.074Z,3.00
2018-07-12T13:37:40.088Z,2.80
2018-07-12T13:40:08.646Z,3.23
2018-07-12T13:42:37.855Z,3.27
2018-07-12T13:45:06.472Z,3.30
2018-07-12T13:47:35.090Z,3.30
2018-07-12T13:50:03.691Z,3.10
2018-07-12T13:52:32.386Z,3.23
2018-07-12T13:55:00.967Z,3.20
2018-07-12T13:57:29.151Z,2.47
2018-07-12T13:59:57.771Z,2.30
2018-07-12T14:02:26.252Z,2.60
2018-07-12T14:04:54.859Z,2.50
2018-07-12T14:07:23.409Z,2.67
2018-07-12T14:09:51.932Z,2.60
2018-07-12T14:12:20.338Z,3.10
2018-07-12T14:14:48.869Z,2.93
2018-07-12T14:17:17.441Z,2.93
2018-07-12T14:19:46.099Z,2.77
2018-07-12T14:22:14.754Z,2.50
2018-07-12T14:24:43.328Z,3.03
2018-07-12T14:27:11.941Z,2.47
2018-07-12T14:29:40.451Z,2.43
2018-07-12T14:32:08.950Z,2.60
2018-07-12T14:34:37.367Z,2.47
2018-07-12T14:37:05.958Z,2.37
2018-07-12T14:39:34.413Z,2.70
2018-07-12T14:42:02.997Z,2.43
2018-07-12T14:44:31.462Z,2.33
2018-07-12T14:47:00.110Z,2.27
2018-07-12T14:49:28.218Z,2.17
2018-07-12T14:51:56.798Z,2.70
2018-07-12T14:54:25.615Z,2.30
2018-07-12T14:56:54.131Z,2.40
2018-07-12T14:59:22.589Z,2.20
2018-07-12T15:01:51.099Z,2.60
2018-07-12T15:04:19.730Z,2.33
2018-07-12T15:06:48.908Z,2.83
2018-07-12T15:09:17.736Z,2.40
2018-07-12T15:11:46.116Z,2.50
2018-07-12T15:14:14.393Z,2.60
2018-07-12T15:16:42.604Z,2.57
2018-07-12T15:19:11.063Z,2.30
2018-07-12T15:21:39.535Z,2.40
2018-07-12T15:24:07.985Z,2.30
2018-07-12T15:26:36.508Z,2.20
2018-07-12T15:29:05.026Z,2.10
2018-07-12T15:31:33.567Z,2.30
2018-07-12T15:34:02.070Z,2.10
2018-07-12T15:36:30.573Z,1.90
2018-07-12T15:39:00.874Z,4.00
2018-07-12T15:41:29.278Z,2.37
2018-07-12T15:43:57.890Z,7.17
2018-07-12T15:46:26.323Z,42.47
2018-07-12T15:48:54.818Z,24.00
2018-07-12T15:51:23.333Z,2.37
2018-07-12T15:53:51.815Z,2.80
2018-07-12T15:56:20.302Z,2.60
2018-07-12T15:58:49.007Z,2.80
2018-07-12T16:01:17.600Z,2.47
2018-07-12T16:03:46.071Z,4.33
2018-07-12T16:06:14.534Z,4.00
2018-07-12T16:08:43.179Z,2.60
2018-07-12T16:11:11.730Z,2.70
2018-07-12T16:13:40.437Z,2.63
2018-07-12T16:16:09.475Z,2.70
2018-07-12T16:18:37.941Z,2.83
2018-07-12T16:21:06.481Z,4.03
2018-07-12T16:23:35.505Z,2.83
2018-07-12T16:26:04.050Z,2.50
2018-07-12T16:28:32.874Z,2.73
2018-07-12T16:31:01.408Z,2.50
2018-07-12T16:33:29.888Z,2.50
2018-07-12T16:35:58.379Z,3.23
2018-07-12T16:38:26.964Z,2.87
2018-07-12T16:40:55.488Z,2.43
2018-07-12T16:43:24.023Z,2.60
2018-07-12T16:45:52.633Z,2.33
2018-07-12T16:48:21.229Z,2.30
2018-07-12T16:50:50.264Z,5.93
2018-07-12T16:53:19.219Z,2.87
2018-07-12T16:55:47.682Z,2.00
2018-07-12T16:58:16.245Z,2.10
2018-07-12T17:00:51.298Z,1.90
2018-07-12T17:03:19.978Z,2.43
2018-07-12T17:05:48.832Z,2.77
2018-07-12T17:08:17.389Z,2.00
2018-07-12T17:10:46.017Z,1.80
2018-07-12T17:13:14.582Z,2.00
2018-07-12T17:15:43.312Z,1.80
2018-07-12T17:18:12.194Z,2.20
2018-07-12T17:20:40.719Z,1.80
2018-07-12T17:23:09.404Z,1.80
2018-07-12T17:25:38.219Z,1.80
2018-07-12T17:28:06.938Z,1.93
2018-07-12T17:30:36.650Z,1.90
2018-07-12T17:33:05.193Z,1.80
2018-07-12T17:35:33.828Z,1.70
2018-07-12T17:38:02.311Z,1.90
2018-07-12T17:40:31.078Z,1.77
2018-07-12T17:42:59.642Z,2.13
2018-07-12T17:45:28.144Z,2.10
2018-07-12T17:47:56.747Z,1.70
2018-07-12T17:50:25.443Z,1.80
2018-07-12T17:52:54.052Z,1.90
2018-07-12T17:55:22.611Z,2.03
2018-07-12T17:57:51.168Z,2.00
2018-07-12T18:00:19.669Z,2.20
2018-07-12T18:02:48.516Z,1.87
2018-07-12T18:05:17.203Z,1.57
2018-07-12T18:07:45.554Z,1.70
2018-07-12T18:10:14.054Z,1.90
2018-07-12T18:12:42.526Z,2.10
2018-07-12T18:15:11.060Z,1.87
2018-07-12T18:17:47.194Z,2.10
2018-07-12T18:20:15.763Z,2.47
2018-07-12T18:22:44.331Z,2.10
2018-07-12T18:25:12.881Z,2.03
2018-07-12T18:27:41.558Z,2.03
2018-07-12T18:30:10.028Z,2.27
2018-07-12T18:32:38.751Z,2.37
2018-07-12T18:35:07.281Z,2.00
2018-07-12T18:37:35.781Z,2.60
2018-07-12T18:40:04.356Z,2.30
2018-07-12T18:42:33.117Z,2.40
2018-07-12T18:45:01.640Z,2.63
2018-07-12T18:47:30.124Z,2.40
2018-07-12T18:49:58.769Z,2.50
2018-07-12T18:52:27.281Z,2.40
2018-07-12T18:54:55.882Z,2.30
2018-07-12T18:57:24.465Z,2.80
2018-07-12T18:59:52.931Z,2.40
2018-07-12T19:02:21.512Z,2.73
2018-07-12T19:04:50.113Z,2.87
2018-07-12T19:07:18.723Z,2.70
2018-07-12T19:09:47.247Z,2.80
2018-07-12T19:12:15.710Z,2.80
2018-07-12T19:14:46.123Z,2.83
2018-07-12T19:17:14.513Z,2.80
2018-07-12T19:19:43.201Z,3.30
2018-07-12T19:22:11.729Z,3.20
2018-07-12T19:24:42.623Z,2.87
2018-07-12T19:27:11.217Z,2.90
2018-07-12T19:29:39.741Z,3.10
2018-07-12T19:32:08.021Z,3.10
2018-07-12T19:34:36.745Z,3.17
2018-07-12T19:37:07.536Z,3.23
2018-07-12T19:39:36.293Z,3.60
2018-07-12T19:42:05.189Z,3.20
2018-07-12T19:44:33.726Z,3.23
2018-07-12T19:47:02.325Z,3.13
2018-07-12T19:49:30.800Z,3.33
2018-07-12T19:51:59.513Z,3.20
2018-07-12T19:54:28.913Z,3.33
2018-07-12T19:56:58.314Z,3.20
2018-07-12T19:59:27.375Z,2.97
2018-07-12T20:01:55.851Z,4.07
2018-07-12T20:04:24.453Z,3.43
2018-07-12T20:06:52.957Z,3.40
2018-07-12T20:09:21.202Z,3.53
2018-07-12T20:11:49.954Z,3.60
2018-07-12T20:14:18.539Z,3.40
2018-07-12T20:16:47.040Z,4.10
2018-07-12T20:19:15.614Z,3.57
2018-07-12T20:21:44.218Z,3.20
2018-07-12T20:24:12.944Z,3.40
2018-07-12T20:26:41.498Z,3.60
2018-07-12T20:29:10.030Z,3.90
2018-07-12T20:31:38.491Z,3.93
2018-07-12T20:34:07.241Z,3.30
2018-07-12T20:36:35.921Z,3.50
2018-07-12T20:39:06.757Z,3.60
2018-07-12T20:41:35.364Z,3.77
2018-07-12T20:44:03.883Z,3.53
2018-07-12T20:46:32.404Z,3.53
2018-07-12T20:49:01.260Z,3.70
2018-07-12T20:51:29.739Z,3.57
2018-07-12T20:53:58.519Z,3.63
2018-07-12T20:56:27.236Z,4.40
2018-07-12T20:58:55.719Z,3.83
2018-07-12T21:01:24.194Z,3.50
2018-07-12T21:03:52.786Z,3.87
2018-07-12T21:06:21.251Z,3.80
2018-07-12T21:08:49.712Z,4.10
2018-07-12T21:11:18.356Z,4.30
2018-07-12T21:13:46.990Z,4.20
2018-07-12T21:16:15.709Z,3.80
2018-07-12T21:18:44.345Z,4.53
2018-07-12T21:21:12.987Z,3.90
2018-07-12T21:23:41.151Z,4.00
2018-07-12T21:26:09.727Z,3.60
2018-07-12T21:28:38.283Z,3.90
2018-07-12T21:31:06.755Z,4.00
2018-07-12T21:33:35.571Z,4.10
2018-07-12T21:36:03.910Z,4.10
2018-07-12T21:38:32.503Z,4.10
2018-07-12T21:41:01.103Z,4.20
2018-07-12T21:43:29.728Z,3.80
2018-07-12T21:45:58.277Z,3.90
2018-07-12T21:48:26.842Z,4.33
2018-07-12T21:50:55.305Z,4.27
2018-07-12T21:53:23.772Z,4.17
2018-07-12T21:55:52.229Z,4.50
2018-07-12T21:58:20.767Z,4.40
2018-07-12T22:00:49.197Z,4.23
2018-07-12T22:03:17.763Z,4.80
2018-07-12T22:05:46.388Z,4.03
2018-07-12T22:08:17.356Z,4.73
2018-07-12T22:10:46.827Z,4.53
2018-07-12T22:13:16.018Z,4.30
2018-07-12T22:15:44.837Z,3.90
2018-07-12T22:18:13.300Z,4.13
2018-07-12T22:20:41.907Z,4.40
2018-07-12T22:23:10.489Z,4.33
2018-07-12T22:25:39.062Z,4.80
2018-07-12T22:28:07.638Z,4.77
2018-07-12T22:30:36.186Z,4.57
2018-07-12T22:33:05.196Z,4.20
2018-07-12T22:35:33.945Z,4.20
2018-07-12T22:38:03.280Z,4.30
2018-07-12T22:40:32.156Z,4.57
2018-07-12T22:43:00.753Z,3.90
2018-07-12T22:45:29.249Z,4.27
2018-07-12T22:47:58.011Z,4.50
2018-07-12T22:50:26.426Z,4.17
2018-07-12T22:52:55.017Z,4.33
2018-07-12T22:55:23.767Z,4.53
2018-07-12T22:57:52.343Z,4.67
2018-07-12T23:00:20.929Z,4.47
2018-07-12T23:02:49.480Z,4.47
2018-07-12T23:05:17.999Z,4.83
2018-07-12T23:07:46.398Z,4.67
2018-07-12T23:10:14.975Z,4.40
2018-07-12T23:12:43.596Z,4.00
2018-07-12T23:15:12.063Z,4.80
2018-07-12T23:17:40.472Z,5.07
2018-07-12T23:20:09.139Z,4.43
2018-07-12T23:22:37.574Z,4.87
2018-07-12T23:25:06.008Z,4.40
2018-07-12T23:27:34.508Z,5.20
2018-07-12T23:30:02.888Z,4.30
2018-07-12T23:32:31.419Z,5.13
2018-07-12T23:34:59.869Z,4.60
2018-07-12T23:37:28.304Z,4.70
2018-07-12T23:39:56.794Z,4.57
2018-07-12T23:42:25.400Z,4.80
2018-07-12T23:44:53.814Z,4.87
2018-07-12T23:47:22.276Z,4.87
2018-07-12T23:49:50.739Z,4.60
2018-07-12T23:52:19.311Z,5.00
2018-07-12T23:54:47.754Z,4.70
2018-07-12T23:57:16.203Z,5.43
2018-07-12T23:59:44.728Z,4.47
